Tiempo atmosférico en la estación meteorológica de Fonfría, Teruel (1262 m.)



Fecha
DESCASC
Temp. máxima en grados centígrados (hora)
DESCASC
Temp. mínima en grados centígrados (hora)
DESCASC
Temp. media en grados centígrados
DESCASC
Racha de viento máxima en m/sg (hora)
DESCASC
Velocidad máxima media en intervalos de 10 minutos(hora)
DESCASC
Precipitaciones diarias en mm
DESCASC
Precipitaciones de 00:00 a 06:00 en mm
DESCASC
Precipitaciones de 06:00 a 12:00 en mm
DESCASC
Precipitaciones de 12:00 a 18:00 en mm
DESCASC
Precipitaciones de 18:00 a 24:00 en mm
DESCASC
14-12-2019 7.5 (13:40) 4.1 (23:40) 5.8 19.17 (19:50) 11.39 (19:50) 0 0 0 0 0
13-12-2019 10.6 (12:50) 6 (00:00) 8.3 24.72 (23:10) 16.39 (23:20) 0.8 0.8 0 0 0
12-12-2019 6 (23:30) 0.1 (07:00) 3.1 17.22 (21:40) 10.83 (23:00) 8.6 0 0 5.2 3.4
11-12-2019 7.2 (04:30) 0.5 (00:00) 3.8 13.61 (22:10) 9.17 (21:50) 1.8 0 0.2 1.6 0
10-12-2019 8.7 (14:40) -1.5 (07:30) 3.6 11.39 (21:10) 8.06 (01:10) 0 0 0 0 0
09-12-2019 6.9 (16:00) 1.4 (23:20) 4.2 14.72 (07:20) 9.72 (07:10) 0 0 0 0 0
08-12-2019 9 (14:50) 2.1 (00:00) 5.5 12.22 (13:10) 7.78 (18:10) 2 0 0 0 2
07-12-2019 8.8 (14:30) 2 (00:00) 5.4 5.83 (00:10) 4.44 (12:20) 0 0 0 0 0
06-12-2019 9.7 (13:30) 2.6 (00:00) 6.1 6.39 (23:59) 5 (22:10) 0.4 0.4 0 0 0
05-12-2019 4.4 (14:30) 1.7 (00:00) 3.1 9.72 (00:30) 6.39 (00:30) 8 3.6 3.2 0.6 0.6
04-12-2019 3.7 (17:50) 0.1 (01:50) 1.9 13.33 (20:50) 8.33 (18:40) 20 0.2 1 13.2 5.6
03-12-2019 1.3 (23:59) -2.4 (-00:0) -0.6 5.83 (00:50) 4.17 (07:30) 0.4 0 0 0 0.4
02-12-2019 3.9 (14:40) -0.3 (00:00) 1.8 9.17 (20:00) 6.39 (20:00) 0 0 0 0 0
01-12-2019 6.4 (14:00) 0.9 (00:00) 3.7 11.11 (00:10) 6.67 (09:00) 2.2 2.2 0 0 0
30-11-2019 12.4 (15:10) 2.4 (00:00) 7.4 16.94 (10:50) 11.94 (11:10) 3.4 0 0 0 3.4
29-11-2019 13.1 (15:10) 7.2 (00:00) 10.2 18.06 (02:00) 11.11 (02:00) 0 0 0 0 0
28-11-2019 10.2 (12:40) 4.7 (08:00) 7.4 17.5 (08:40) 12.22 (08:40) 0 0 0 0 0
27-11-2019 10.2 (00:20) 5.5 (00:00) 7.8 16.11 (09:50) 10.56 (09:40) 0 0 0 0 0
26-11-2019 13.5 (14:20) 6.4 (00:00) 10 18.33 (13:50) 12.22 (07:00) 0 0 0 0 0
25-11-2019 10.9 (13:00) 3.7 (00:00) 7.3 16.11 (02:00) 10.83 (00:30) 1.4 1.4 0 0 0
24-11-2019 4.8 (14:20) 1 (00:00) 2.9 15.83 (23:30) 10.83 (23:20) 0 0 0 0 0
23-11-2019 5.6 (00:00) 0.4 (00:00) 3 17.22 (10:00) 10.56 (10:40) 12.6 2.6 9.6 0.4 0
22-11-2019 8.3 (15:00) 1.7 (00:00) 5 15.83 (15:20) 9.72 (15:30) 3.2 0 0 1.6 1.6
21-11-2019 7.4 (14:20) 1.6 (00:00) 4.5 14.17 (08:30) 9.17 (08:30) 0 0 0 0 0
20-11-2019 7.7 (16:10) -1.7 (06:40) 3 7.78 (01:50) 5.83 (01:50) 0.4 0 0 0 0.4
19-11-2019 4.9 (13:50) -3 (-00:0) 1 12.5 (00:10) 9.44 (00:10) 0 0 0 0 0
18-11-2019 2.8 (15:00) -0.7 (-00:0) 1 13.89 (23:40) 10 (23:20) 0.8 0.6 0.2 0 0
17-11-2019 5.7 (13:20) -1.4 (-00:0) 2.1 15.83 (12:10) 10.56 (12:00) 14.6 0 0 7.4 7.2
16-11-2019 3.6 (13:30) -2.1 (-00:0) 0.8 12.22 (21:10) 7.5 (20:10) 0 0 0 0 0

Gráficas

Temp. máximas Temp. mínimas Temp. medias Precipitaciones Rachas de viento máximas Velocidades máximas media en intervalos de 10 minutos

Datos horarios

Fecha y hora oficial Temperatura (ºC) Velocidad del viento (km/h) Dirección del viento Racha (km/h) Dirección de racha Precipitación (mm) Presión (hPa) Tendencia (hPa) Humedad (%)
2019-12-15 23:00:00 5.6 14 Sur 20 Sur 0 -- -- 78
2019-12-15 22:00:00 4.6 8 Sur 10 Sur 0 -- -- 82
2019-12-15 21:00:00 4.3 0 Calma 15 Sudoeste 0 -- -- 84
2019-12-15 20:00:00 4.5 13 Sudoeste 21 Sudoeste 0 -- -- 84
2019-12-15 19:00:00 4.6 13 Sudoeste 14 Sudoeste 0 -- -- 83
2019-12-15 18:00:00 4.3 10 Sudoeste 13 Sudoeste 0 -- -- 84
2019-12-15 17:00:00 7 7 Oeste 23 Sudoeste 0 -- -- 73
2019-12-15 16:00:00 8.5 14 Oeste 28 Oeste 0 -- -- 66
2019-12-15 15:00:00 9 17 Oeste 31 Noroeste 0 -- -- 64
2019-12-15 14:00:00 8.9 19 Oeste 40 Oeste 0 -- -- 66
2019-12-15 13:00:00 7.8 33 Oeste 53 Oeste 0 -- -- 72
2019-12-15 12:00:00 6.9 33 Oeste 63 Oeste 0 -- -- 76
2019-12-15 11:00:00 5.7 39 Oeste 59 Sudoeste 0 -- -- 82
2019-12-15 10:00:00 4.7 40 Oeste 62 Oeste 0 -- -- 87
2019-12-15 09:00:00 3.8 44 Oeste 62 Oeste 0 -- -- 93
2019-12-15 08:00:00 3.9 42 Oeste 64 Oeste 0 -- -- 94
2019-12-15 07:00:00 3.7 42 Oeste 59 Oeste 0 -- -- 94
2019-12-15 06:00:00 3.6 36 Oeste 59 Oeste 0 -- -- 94
2019-12-15 05:00:00 3.4 32 Oeste 57 Oeste 0 -- -- 93
2019-12-15 04:00:00 3.7 43 Oeste 64 Oeste 0 -- -- 91
2019-12-15 03:00:00 4 32 Oeste 56 Oeste 0 -- -- 91
2019-12-15 02:00:00 3.9 24 Oeste 63 Oeste 0 -- -- 91
2019-12-15 01:00:00 4.1 42 Oeste 62 Oeste 0 -- -- 89
2019-12-15 00:00:00 4.1 31 Oeste 59 Oeste 0 -- -- 88
2019-12-14 23:00:00 4.2 24 Oeste 52 Oeste 0 -- -- 88
2019-12-14 22:00:00 4.4 23 Oeste 46 Oeste 0 -- -- 88
2019-12-14 21:00:00 4.5 22 Noroeste 66 Oeste 0 -- -- 87
2019-12-14 20:00:00 4.9 36 Oeste 69 Oeste 0 -- -- 85
2019-12-14 19:00:00 5 36 Oeste 63 Oeste 0 -- -- 84
2019-12-14 18:00:00 5.1 15 Oeste 41 Oeste 0 -- -- 83
2019-12-14 17:00:00 5.4 12 Noroeste 35 Noroeste 0 -- -- 83
2019-12-14 16:00:00 6 11 Noroeste 38 Oeste 0 -- -- 81
2019-12-14 15:00:00 6.2 18 Noroeste 41 Norte 0 -- -- 79
2019-12-14 14:00:00 7.1 21 Noroeste 41 Noroeste 0 -- -- 77
2019-12-14 13:00:00 6.3 13 Norte 47 Oeste 0 -- -- 79
2019-12-14 12:00:00 6.1 30 Noroeste 50 Noroeste 0 -- -- 81
2019-12-14 11:00:00 5.5 22 Noroeste 39 Noroeste 0 -- -- 85
2019-12-14 10:00:00 4.8 27 Noroeste 45 Oeste 0 -- -- 90
2019-12-14 09:00:00 4.2 18 Noroeste 42 Noroeste 0 -- -- 92
2019-12-14 08:00:00 4.6 21 Noroeste 40 Oeste 0 -- -- 89
2019-12-14 07:00:00 4.7 22 Noroeste 50 Oeste 0 -- -- 89
2019-12-14 06:00:00 4.9 24 Noroeste 42 Noroeste 0 -- -- 90
2019-12-14 05:00:00 5.1 16 Oeste 46 Noroeste 0 -- -- 90
2019-12-14 04:00:00 5 27 Noroeste 45 Noroeste 0 -- -- 90
2019-12-14 03:00:00 5.2 30 Oeste 56 Oeste 0 -- -- 90
2019-12-14 02:00:00 6.1 33 Oeste 62 Noroeste 0 -- -- 85
2019-12-14 01:00:00 6.7 21 Oeste 60 Noroeste 0 -- -- 82
2019-12-14 00:00:00 7.4 35 Noroeste 89 Noroeste 0 -- -- 79
2019-12-13 23:00:00 7.8 57 Noroeste 86 Noroeste 0 -- -- 80
2019-12-13 22:00:00 8.1 55 Noroeste 83 Noroeste 0 -- -- 82
2019-12-13 21:00:00 8.4 44 Noroeste 78 Noroeste 0 -- -- 85
2019-12-13 20:00:00 8.8 47 Noroeste 72 Noroeste 0 -- -- 82
2019-12-13 19:00:00 9.4 45 Noroeste 76 Noroeste 0 -- -- 81
2019-12-13 18:00:00 9.6 45 Noroeste 70 Noroeste 0 -- -- 79
2019-12-13 17:00:00 9.6 37 Noroeste 70 Noroeste 0 -- -- 81
2019-12-13 16:00:00 10 43 Noroeste 79 Norte 0 -- -- 79
2019-12-13 15:00:00 10.2 49 Noroeste 78 Norte 0 -- -- 78
2019-12-13 14:00:00 10.1 51 Noroeste 86 Noroeste 0 -- -- 78
2019-12-13 13:00:00 10.4 55 Noroeste 83 Noroeste 0 -- -- 76
2019-12-13 12:00:00 9.9 47 Noroeste 79 Noroeste 0 -- -- 78
2019-12-13 11:00:00 8.8 36 Noroeste 62 Noroeste 0 -- -- 84
2019-12-13 10:00:00 8 36 Noroeste 67 Noroeste 0 -- -- 88
2019-12-13 09:00:00 7.8 39 Noroeste 72 Oeste 0 -- -- 88
2019-12-13 08:00:00 7.8 37 Noroeste 67 Oeste 0 -- -- 91
2019-12-13 07:00:00 7.8 42 Oeste 66 Oeste 0 -- -- 93
2019-12-13 06:00:00 7.6 36 Oeste 65 Oeste 0 -- -- 94
2019-12-13 05:00:00 7.7 40 Oeste 70 Oeste 0 -- -- 94
2019-12-13 04:00:00 7.4 42 Oeste 69 Oeste 0 -- -- 94
2019-12-13 03:00:00 7.1 41 Oeste 68 Oeste 0.2 -- -- 94
2019-12-13 02:00:00 6.8 38 Oeste 59 Oeste 0.2 -- -- 95
2019-12-13 01:00:00 6.3 32 Oeste 56 Oeste 0.4 -- -- 96
2019-12-13 00:00:00 6 34 Oeste 60 Noroeste 0.2 -- -- 96
2019-12-12 23:00:00 5.6 39 Oeste 62 Oeste 0 -- -- 96
2019-12-12 22:00:00 4.9 31 Oeste 62 Oeste 0.2 -- -- 96
2019-12-12 21:00:00 4.4 37 Oeste 59 Oeste 0.8 -- -- 96
2019-12-12 20:00:00 3.5 32 Oeste 58 Oeste 1.6 -- -- 97
2019-12-12 19:00:00 2.8 33 Oeste 54 Oeste 0.6 -- -- 95
2019-12-12 18:00:00 2.4 30 Oeste 55 Oeste 0.2 -- -- 94
2019-12-12 17:00:00 1.8 25 Oeste 53 Oeste 2 -- -- 95
2019-12-12 16:00:00 1.2 30 Oeste 55 Oeste 2.8 -- -- 96
2019-12-12 15:00:00 2.7 28 Oeste 50 Oeste 0.2 -- -- 91
2019-12-12 14:00:00 3.5 32 Oeste 53 Oeste 0 -- -- 85
2019-12-12 13:00:00 3.2 26 Oeste 49 Oeste 0 -- -- 86
2019-12-12 12:00:00 3.1 26 Oeste 42 Oeste 0 -- -- 85
2019-12-12 11:00:00 3 17 Oeste 41 Oeste 0 -- -- 84
2019-12-12 10:00:00 1.9 26 Oeste 44 Oeste 0 -- -- 86
2019-12-12 09:00:00 0.5 11 Oeste 32 Oeste 0 -- -- 92
2019-12-12 08:00:00 0.7 22 Oeste 39 Oeste 0 -- -- 90
2019-12-12 07:00:00 0.1 18 Oeste 37 Oeste 0 -- -- 93
2019-12-12 06:00:00 0.4 17 Oeste 35 Noroeste 0 -- -- 92
2019-12-12 05:00:00 0.3 20 Noroeste 42 Noroeste 0 -- -- 94
2019-12-12 04:00:00 0.5 21 Noroeste 48 Noroeste 0 -- -- 94
2019-12-12 03:00:00 0.6 30 Noroeste 53 Noroeste 0 -- -- 93
2019-12-12 02:00:00 0.6 31 Noroeste 55 Noroeste 0 -- -- 91
2019-12-12 01:00:00 1 35 Noroeste 57 Noroeste 0 -- -- 87
2019-12-12 00:00:00 0.6 30 Noroeste 46 Noroeste 0 -- -- 88
2019-12-11 23:00:00 0.9 30 Noroeste 49 Noroeste 0 -- -- 87
2019-12-11 22:00:00 1 29 Noroeste 47 Oeste 0 -- -- 86
2019-12-11 21:00:00 0.8 24 Noroeste 42 Noroeste 0 -- -- 94
2019-12-11 20:00:00 0.8 21 Noroeste 42 Noroeste 0 -- -- 92
2019-12-11 19:00:00 1.7 26 Noroeste 43 Noroeste 0 -- -- 94
2019-12-11 18:00:00 2.2 30 Noroeste 46 Oeste 0 -- -- 99
2019-12-11 17:00:00 2.5 23 Noroeste 44 Noroeste 0 -- -- 99
2019-12-11 16:00:00 2.3 24 Noroeste 41 Noroeste 0 -- -- 99
2019-12-11 15:00:00 1.9 22 Noroeste 37 Noroeste 0.8 -- -- 99
2019-12-11 14:00:00 1.3 27 Noroeste 42 Noroeste 0.2 -- -- 97
2019-12-11 13:00:00 2.2 25 Noroeste 37 Noroeste 0.6 -- -- 91
2019-12-11 12:00:00 2.8 22 Noroeste 40 Noroeste 0.2 -- -- 80
2019-12-11 11:00:00 5.5 25 Oeste 45 Oeste 0 -- -- 58
2019-12-11 10:00:00 6.1 29 Oeste 40 Oeste 0 -- -- 52
2019-12-11 09:00:00 5.4 28 Oeste 46 Oeste 0 -- -- 52
2019-12-11 08:00:00 4.8 28 Oeste 42 Oeste 0 -- -- 53
2019-12-11 07:00:00 6.2 24 Oeste 42 Noroeste 0 -- -- 46
2019-12-11 06:00:00 7.2 27 Noroeste 44 Noroeste 0 -- -- 40
2019-12-11 05:00:00 6.7 18 Noroeste 40 Noroeste 0 -- -- 47
2019-12-11 04:00:00 6.7 24 Noroeste 36 Noroeste 0 -- -- 43
2019-12-11 03:00:00 7 18 Noroeste 34 Noroeste 0 -- -- 45
2019-12-11 02:00:00 4.7 12 Oeste 46 Oeste 0 -- -- 60
2019-12-11 01:00:00 6.5 28 Oeste 42 Oeste 0 -- -- 60
2019-12-11 00:00:00 5.9 23 Oeste 35 Oeste 0 -- -- 59
2019-12-10 23:00:00 6.3 21 Oeste 41 Oeste 0 -- -- 48
2019-12-10 22:00:00 6.6 19 Oeste 41 Oeste 0 -- -- 41
2019-12-10 21:00:00 6.7 21 Oeste 35 Oeste 0 -- -- 45
2019-12-10 20:00:00 5.3 5 Sur 20 Oeste 0 -- -- 52
2019-12-10 19:00:00 7 16 Oeste 33 Noroeste 0 -- -- 47
2019-12-10 18:00:00 5.7 11 Norte 18 Noroeste 0 -- -- 57
2019-12-10 17:00:00 6.3 12 Norte 20 Noroeste 0 -- -- 65
2019-12-10 16:00:00 8.1 13 Norte 22 Norte 0 -- -- 55
2019-12-10 15:00:00 8.6 17 Norte 26 Norte 0 -- -- 47
2019-12-10 14:00:00 7.6 11 Norte 23 Noroeste 0 -- -- 62
2019-12-10 13:00:00 6.1 12 Noroeste 33 Norte 0 -- -- 69
2019-12-10 12:00:00 4 15 Norte 32 Norte 0 -- -- 75
2019-12-10 11:00:00 2.3 15 Noroeste 30 Noroeste 0 -- -- 89
2019-12-10 10:00:00 1 24 Noroeste 34 Noroeste 0 -- -- 93
2019-12-10 09:00:00 -0.2 17 Noroeste 27 Noroeste 0 -- -- 97
2019-12-10 08:00:00 -0.6 18 Noroeste 24 Noroeste 0 -- -- 98
2019-12-10 07:00:00 -1.4 9 Norte 18 Norte 0 -- -- 98
2019-12-10 06:00:00 -0.5 12 Norte 24 Norte 0 -- -- 96
2019-12-10 05:00:00 0.1 11 Norte 26 Noroeste 0 -- -- 95
2019-12-10 04:00:00 -0.7 11 Norte 31 Noroeste 0 -- -- 96
2019-12-10 03:00:00 0.6 20 Noroeste 30 Noroeste 0 -- -- 93
2019-12-10 02:00:00 1.6 13 Noroeste 41 Noroeste 0 -- -- 87
2019-12-10 01:00:00 1.3 23 Noroeste 34 Noroeste 0 -- -- 91
2019-12-10 00:00:00 2 24 Noroeste 43 Noroeste 0 -- -- 85
2019-12-09 23:00:00 1.7 12 Noroeste 30 Noroeste 0 -- -- 88
2019-12-09 22:00:00 2.6 25 Noroeste 42 Noroeste 0 -- -- 84
2019-12-09 21:00:00 3.2 29 Norte 43 Norte 0 -- -- 86
2019-12-09 20:00:00 2.6 20 Norte 33 Norte 0 -- -- 88
2019-12-09 19:00:00 2.7 15 Noroeste 28 Noroeste 0 -- -- 88
2019-12-09 18:00:00 4 18 Noroeste 47 Norte 0 -- -- 86
2019-12-09 17:00:00 5.8 22 Noroeste 37 Noroeste 0 -- -- 75
2019-12-09 16:00:00 6.9 29 Noroeste 44 Noroeste 0 -- -- 71
2019-12-09 15:00:00 6.2 30 Noroeste 48 Noroeste 0 -- -- 73
2019-12-09 14:00:00 5.8 32 Noroeste 48 Noroeste 0 -- -- 72
2019-12-09 13:00:00 5.2 29 Noroeste 42 Noroeste 0 -- -- 79
2019-12-09 12:00:00 3.4 29 Noroeste 46 Noroeste 0 -- -- 90
2019-12-09 11:00:00 3.4 31 Noroeste 51 Noroeste 0 -- -- 91
2019-12-09 10:00:00 2.6 27 Noroeste 44 Noroeste 0 -- -- 98
2019-12-09 09:00:00 3.6 31 Oeste 51 Noroeste 0 -- -- 83
2019-12-09 08:00:00 2.4 29 Noroeste 53 Noroeste 0 -- -- 94
2019-12-09 07:00:00 2.8 34 Noroeste 49 Noroeste 0 -- -- 96
2019-12-09 06:00:00 3.4 27 Noroeste 46 Noroeste 0 -- -- 97
2019-12-09 05:00:00 3.5 23 Noroeste 40 Noroeste 0 -- -- 99
2019-12-09 04:00:00 3.5 24 Noroeste 44 Noroeste 0 -- -- 100
2019-12-09 03:00:00 4 30 Noroeste 48 Noroeste 0 -- -- 100
2019-12-09 02:00:00 4.4 27 Noroeste 40 Noroeste 0 -- -- 100
2019-12-09 01:00:00 4.5 26 Noroeste 43 Noroeste 0 -- -- 100
2019-12-09 00:00:00 5.6 21 Noroeste 41 Noroeste 0 -- -- 100
2019-12-08 23:00:00 5.6 21 Noroeste 33 Noroeste 0 -- -- 100
2019-12-08 22:00:00 5.7 23 Noroeste 34 Noroeste 0 -- -- 100
2019-12-08 21:00:00 5.7 22 Noroeste 32 Noroeste 0.4 -- -- 100
2019-12-08 20:00:00 5.8 22 Noroeste 39 Noroeste 1.2 -- -- 99
2019-12-08 19:00:00 6.1 25 Noroeste 43 Noroeste 0.4 -- -- 98
2019-12-08 18:00:00 6.3 19 Noroeste 34 Noroeste 0 -- -- 95
2019-12-08 17:00:00 7 18 Noroeste 38 Noroeste 0 -- -- 91
2019-12-08 16:00:00 7.9 23 Noroeste 36 Noroeste 0 -- -- 85
2019-12-08 15:00:00 8.6 18 Noroeste 31 Noroeste 0 -- -- 79
2019-12-08 14:00:00 7.9 19 Noroeste 44 Noroeste 0 -- -- 79
2019-12-08 13:00:00 8.8 19 Oeste 40 Noroeste 0 -- -- 74
2019-12-08 12:00:00 8.2 20 Noroeste 39 Noroeste 0 -- -- 70
2019-12-08 11:00:00 7.1 25 Noroeste 41 Noroeste 0 -- -- 75
2019-12-08 10:00:00 6.1 18 Noroeste 33 Noroeste 0 -- -- 85
2019-12-08 09:00:00 4.7 14 Oeste 22 Oeste 0 -- -- 85
2019-12-08 08:00:00 3.2 8 Noroeste 24 Noroeste 0 -- -- 93
2019-12-08 07:00:00 2.5 3 Norte 19 Noroeste 0 -- -- 94
2019-12-08 06:00:00 3.9 12 Noroeste 20 Noroeste 0 -- -- 88
2019-12-08 05:00:00 3.5 9 Noroeste 27 Oeste 0 -- -- 87
2019-12-08 04:00:00 4.5 11 Noroeste 23 Noroeste 0 -- -- 80
2019-12-08 03:00:00 2.4 0 Calma 18 Noroeste 0 -- -- 96
2019-12-08 02:00:00 3 0 Calma 10 Sudoeste 0 -- -- 92
2019-12-08 01:00:00 3.4 7 Oeste 10 Sudoeste 0 -- -- 91
2019-12-08 00:00:00 3.2 3 Noroeste 7 Noroeste 0 -- -- 90
2019-12-07 23:00:00 3.9 5 Noroeste 10 Noroeste 0 -- -- 90
2019-12-07 22:00:00 3.7 5 Norte 11 Oeste 0 -- -- 84
2019-12-07 21:00:00 5 3 Noroeste 5 Noroeste 0 -- -- 76
2019-12-07 20:00:00 4 0 Calma 9 Oeste 0 -- -- 82
2019-12-07 19:00:00 5.1 8 Oeste 11 Noroeste 0 -- -- 76
2019-12-07 18:00:00 4.6 2 Noroeste 10 Oeste 0 -- -- 84
2019-12-07 17:00:00 6 9 Oeste 14 Noroeste 0 -- -- 83
2019-12-07 16:00:00 7.9 10 Noroeste 16 Norte 0 -- -- 83
2019-12-07 15:00:00 8.6 10 Noroeste 17 Noroeste 0 -- -- 77
2019-12-07 14:00:00 8.4 13 Noroeste 19 Norte 0 -- -- 78
2019-12-07 13:00:00 8.2 13 Norte 21 Noroeste 0 -- -- 79
2019-12-07 12:00:00 7.4 13 Norte 17 Norte 0 -- -- 87
2019-12-07 11:00:00 6 10 Norte 13 Norte 0 -- -- 92
2019-12-07 10:00:00 4.8 5 Noroeste 9 Noroeste 0 -- -- 94
2019-12-07 09:00:00 3.1 5 Noroeste 9 Noroeste 0 -- -- 98
2019-12-07 08:00:00 2.2 4 Oeste 7 Noroeste 0 -- -- 99
2019-12-07 07:00:00 2.4 5 Oeste 15 Sudoeste 0 -- -- 99
2019-12-07 06:00:00 2.1 5 Sudoeste 17 Sudoeste 0 -- -- 98
2019-12-07 05:00:00 2.6 3 Noroeste 5 Noroeste 0 -- -- 99
2019-12-07 04:00:00 2.5 5 Noroeste 10 Noroeste 0 -- -- 99
2019-12-07 03:00:00 2.4 9 Noroeste 13 Noroeste 0 -- -- 98
2019-12-07 02:00:00 3.5 6 Oeste 21 Sudoeste 0 -- -- 97
2019-12-07 01:00:00 3.3 15 Sudoeste 21 Oeste 0 -- -- 95
2019-12-07 00:00:00 4.3 17 Sudoeste 23 Sudoeste 0 -- -- 93
2019-12-06 23:00:00 4.4 16 Sudoeste 22 Sudoeste 0 -- -- 93
2019-12-06 22:00:00 2.7 14 Sudoeste 19 Sudoeste 0 -- -- 97
2019-12-06 21:00:00 2.7 17 Sudoeste 20 Sudoeste 0 -- -- 96
2019-12-06 20:00:00 2.9 12 Sudoeste 14 Sudoeste 0 -- -- 94
2019-12-06 19:00:00 2.8 12 Sudoeste 15 Sudoeste 0 -- -- 95
2019-12-06 18:00:00 3.8 10 Sudoeste 13 Sudoeste 0 -- -- 92
2019-12-06 17:00:00 6.9 0 Calma 10 Sudoeste 0 -- -- 83
2019-12-06 16:00:00 8 8 Sudoeste 17 Sudoeste 0 -- -- 81
2019-12-06 15:00:00 8.4 3 Sudoeste 13 Sudoeste 0 -- -- 80
2019-12-06 14:00:00 8.1 5 Sudoeste 19 Sur 0 -- -- 77
2019-12-06 13:00:00 8.3 13 Sur 21 Sudoeste 0 -- -- 84
2019-12-06 12:00:00 8 13 Sur 19 Sudoeste 0 -- -- 98
2019-12-06 11:00:00 6.2 9 Sur 15 Sudoeste 0 -- -- 100
2019-12-06 10:00:00 4.5 5 Este 8 Sudeste 0 -- -- 100
2019-12-06 09:00:00 4.2 5 Sudeste 14 Sudeste 0 -- -- 100
2019-12-06 08:00:00 4.1 7 Sudeste 10 Sur 0 -- -- 100
2019-12-06 07:00:00 3.8 6 Sudeste 10 Sudeste 0 -- -- 100
2019-12-06 06:00:00 3.9 4 Sur 6 Sur 0.2 -- -- 100
2019-12-06 05:00:00 3.5 0 Calma 4 Norte 0 -- -- 100
2019-12-06 04:00:00 3.4 3 Norte 4 Norte 0 -- -- 100
2019-12-06 03:00:00 3.2 0 Calma 8 Nordeste 0 -- -- 100
2019-12-06 02:00:00 2.9 6 Noroeste 10 Noroeste 0.2 -- -- 100
2019-12-06 01:00:00 3.2 4 Noroeste 13 Norte 0 -- -- 100
2019-12-06 00:00:00 3.2 8 Norte 18 Norte 0.2 -- -- 100
2019-12-05 23:00:00 3.2 12 Norte 21 Nordeste 0.2 -- -- 100
2019-12-05 22:00:00 3.3 12 Nordeste 21 Nordeste 0 -- -- 100
2019-12-05 21:00:00 3.4 13 Nordeste 30 Nordeste 0 -- -- 100
2019-12-05 20:00:00 3.5 13 Nordeste 22 Nordeste 0 -- -- 100
2019-12-05 19:00:00 3.8 13 Nordeste 25 Nordeste 0.2 -- -- 100
2019-12-05 18:00:00 4.2 13 Este 22 Este 0 -- -- 100
2019-12-05 17:00:00 4.1 10 Nordeste 17 Norte 0 -- -- 100
2019-12-05 16:00:00 3.7 10 Norte 15 Norte 0 -- -- 100
2019-12-05 15:00:00 4 11 Nordeste 19 Nordeste 0 -- -- 100
2019-12-05 14:00:00 4 13 Nordeste 25 Nordeste 0.4 -- -- 100
2019-12-05 13:00:00 3.5 8 Norte 15 Noroeste 0.2 -- -- 100
2019-12-05 12:00:00 3.1 10 Norte 16 Norte 0.6 -- -- 100
2019-12-05 11:00:00 2.4 12 Norte 17 Norte 0.4 -- -- 100
2019-12-05 10:00:00 2.6 9 Norte 16 Norte 0.2 -- -- 100
2019-12-05 09:00:00 1.8 12 Norte 23 Norte 0.4 -- -- 100
2019-12-05 08:00:00 1.8 10 Norte 15 Noroeste 0.6 -- -- 100
2019-12-05 07:00:00 2 10 Norte 21 Norte 1 -- -- 100
2019-12-05 06:00:00 2.5 13 Nordeste 24 Nordeste 0.4 -- -- 100
2019-12-05 05:00:00 2.5 17 Norte 31 Norte 0.8 -- -- 100
2019-12-05 04:00:00 2.8 13 Nordeste 25 Nordeste 1.6 -- -- 100
2019-12-05 03:00:00 2.9 14 Nordeste 32 Nordeste 0.6 -- -- 100
2019-12-05 02:00:00 2.8 15 Nordeste 27 Norte 0 -- -- 100
2019-12-05 01:00:00 2.5 20 Norte 35 Nordeste 0.2 -- -- 100
2019-12-05 00:00:00 2.4 20 Nordeste 34 Nordeste 0.2 -- -- 100
2019-12-04 23:00:00 2.5 20 Nordeste 41 Nordeste 1.4 -- -- 100
2019-12-04 22:00:00 2.9 23 Nordeste 39 Norte 0.8 -- -- 100
2019-12-04 21:00:00 3.3 25 Norte 48 Norte 1 -- -- 100
2019-12-04 20:00:00 3.6 21 Nordeste 45 Nordeste 0.8 -- -- 100
2019-12-04 19:00:00 3.5 28 Nordeste 45 Nordeste 1.4 -- -- 100
2019-12-04 18:00:00 3.7 24 Nordeste 37 Nordeste 2 -- -- 100
2019-12-04 17:00:00 3.2 18 Nordeste 34 Norte 2 -- -- 100
2019-12-04 16:00:00 2.9 16 Nordeste 32 Norte 2.2 -- -- 100
2019-12-04 15:00:00 2.6 17 Nordeste 33 Nordeste 3.2 -- -- 100
2019-12-04 14:00:00 2.7 21 Nordeste 36 Nordeste 2.4 -- -- 100
2019-12-04 13:00:00 2.4 25 Nordeste 36 Nordeste 1.4 -- -- 100
2019-12-04 12:00:00 1.8 20 Nordeste 37 Nordeste 0.6 -- -- 100
2019-12-04 11:00:00 2 21 Nordeste 31 Nordeste 0.2 -- -- 100
2019-12-04 10:00:00 2.1 17 Nordeste 29 Nordeste 0 -- -- 100
2019-12-04 09:00:00 1.7 15 Nordeste 24 Nordeste 0.2 -- -- 100
2019-12-04 08:00:00 1.7 16 Nordeste 27 Este 0 -- -- 100
2019-12-04 07:00:00 1.9 14 Nordeste 22 Nordeste 0 -- -- 100
2019-12-04 06:00:00 1.7 15 Este 23 Nordeste 0 -- -- 100
2019-12-04 05:00:00 1.4 12 Nordeste 18 Nordeste 0 -- -- 100
2019-12-04 04:00:00 1.4 9 Nordeste 15 Este 0 -- -- 100
2019-12-04 03:00:00 0.7 6 Este 12 Nordeste 0.2 -- -- 100
2019-12-04 02:00:00 0.1 4 Norte 10 Nordeste 0 -- -- 99
2019-12-04 01:00:00 1.1 3 Sudeste 8 Sudeste 0 -- -- 98
2019-12-04 00:00:00 1.3 4 Sur 8 Este 0.2 -- -- 98
2019-12-03 23:00:00 0.5 5 Este 9 Sudeste 0.2 -- -- 97
2019-12-03 22:00:00 0.5 7 Sudeste 10 Sudeste 0 -- -- 94
2019-12-03 21:00:00 0.2 4 Sur 13 Este 0 -- -- 98
2019-12-03 20:00:00 -0.6 8 Este 14 Este 0 -- -- 97
2019-12-03 19:00:00 -0.6 3 Sudeste 13 Este 0 -- -- 98
2019-12-03 18:00:00 -0.2 10 Este 17 Nordeste 0 -- -- 96
2019-12-03 17:00:00 0.3 11 Nordeste 15 Este 0 -- -- 94
2019-12-03 16:00:00 1.1 6 Este 14 Este 0 -- -- 91
2019-12-03 15:00:00 0.9 8 Este 17 Nordeste 0 -- -- 90
2019-12-03 14:00:00 0.9 9 Nordeste 14 Nordeste 0 -- -- 90
2019-12-03 13:00:00 1.1 8 Este 13 Nordeste 0 -- -- 87
2019-12-03 12:00:00 0.3 4 Nordeste 12 Norte 0 -- -- 92
2019-12-03 11:00:00 -0.7 6 Norte 13 Nordeste 0 -- -- 99
2019-12-03 10:00:00 -1.1 6 Nordeste 15 Nordeste 0 -- -- 100
2019-12-03 09:00:00 -1.6 9 Norte 20 Norte 0 -- -- 100
2019-12-03 08:00:00 -1.6 12 Norte 20 Norte 0 -- -- 100
2019-12-03 07:00:00 -1.6 13 Norte 18 Norte 0 -- -- 100
2019-12-03 06:00:00 -1.5 10 Norte 14 Norte 0 -- -- 99
2019-12-03 05:00:00 -1.7 10 Norte 19 Norte 0 -- -- 99
2019-12-03 04:00:00 -1.5 11 Norte 19 Norte 0 -- -- 99
2019-12-03 03:00:00 -1.7 13 Norte 21 Norte 0 -- -- 98
2019-12-03 02:00:00 -2.3 7 Norte 14 Norte 0 -- -- 98
2019-12-03 01:00:00 -1.5 12 Norte 21 Norte 0 -- -- 96
2019-12-03 00:00:00 -0.2 10 Norte 22 Noroeste 0 -- -- 98
2019-12-02 23:00:00 -0.3 17 Norte 28 Norte 0 -- -- 98
2019-12-02 22:00:00 0.1 14 Norte 26 Norte 0 -- -- 97
2019-12-02 21:00:00 1.1 13 Noroeste 33 Norte 0 -- -- 98
2019-12-02 20:00:00 1.4 23 Norte 33 Norte 0 -- -- 96
2019-12-02 19:00:00 2.1 17 Norte 29 Norte 0 -- -- 95
2019-12-02 18:00:00 2.9 18 Norte 25 Norte 0 -- -- 94
2019-12-02 17:00:00 3.5 15 Norte 23 Norte 0 -- -- 91
2019-12-02 16:00:00 3.8 8 Nordeste 17 Nordeste 0 -- -- 90
2019-12-02 15:00:00 3.6 9 Nordeste 20 Norte 0 -- -- 90
2019-12-02 14:00:00 3.6 10 Nordeste 19 Nordeste 0 -- -- 91
2019-12-02 13:00:00 3.3 10 Nordeste 17 Nordeste 0 -- -- 96
2019-12-02 12:00:00 2.8 10 Nordeste 15 Nordeste 0 -- -- 99
2019-12-02 11:00:00 2.2 10 Nordeste 16 Este 0 -- -- 100
2019-12-02 10:00:00 2 7 Norte 17 Noroeste 0 -- -- 100
2019-12-02 09:00:00 1.8 11 Norte 18 Norte 0 -- -- 100
2019-12-02 08:00:00 1.6 12 Norte 22 Norte 0 -- -- 99
2019-12-02 07:00:00 1.6 15 Norte 22 Norte 0 -- -- 99
2019-12-02 06:00:00 1.8 12 Norte 18 Norte 0 -- -- 99
2019-12-02 05:00:00 2 14 Norte 20 Norte 0 -- -- 99
2019-12-02 04:00:00 2.2 12 Norte 21 Norte 0 -- -- 98
2019-12-02 03:00:00 2.6 12 Norte 16 Norte 0 -- -- 97
2019-12-02 02:00:00 2.6 13 Norte 22 Norte 0 -- -- 98
2019-12-02 01:00:00 2.8 8 Norte 14 Norte 0 -- -- 97
2019-12-02 00:00:00 2.5 4 Norte 10 Noroeste 0 -- -- 93
2019-12-01 23:00:00 2.5 7 Noroeste 12 Noroeste 0 -- -- 93
2019-12-01 22:00:00 3.1 3 Noroeste 6 Noroeste 0 -- -- 83
2019-12-01 21:00:00 3 0 Calma 7 Oeste 0 -- -- 85
2019-12-01 20:00:00 2.2 3 Oeste 9 Oeste 0 -- -- 93
2019-12-01 19:00:00 2.4 3 Oeste 8 Nordeste 0 -- -- 89
2019-12-01 18:00:00 2.6 0 Calma 13 Noroeste 0 -- -- 86
2019-12-01 17:00:00 3.9 9 Oeste 15 Noroeste 0 -- -- 84
2019-12-01 16:00:00 6.2 10 Noroeste 19 Noroeste 0 -- -- 73
2019-12-01 15:00:00 5.9 6 Norte 20 Noroeste 0 -- -- 72
2019-12-01 14:00:00 6.4 11 Norte 19 Noroeste 0 -- -- 72
2019-12-01 13:00:00 4.7 14 Noroeste 22 Oeste 0 -- -- 81
2019-12-01 12:00:00 6.3 11 Noroeste 23 Noroeste 0 -- -- 78
2019-12-01 11:00:00 4.8 8 Noroeste 21 Noroeste 0 -- -- 82
2019-12-01 10:00:00 3.8 9 Norte 37 Sudoeste 0 -- -- 87
2019-12-01 09:00:00 2.3 24 Oeste 35 Oeste 0 -- -- 95
2019-12-01 08:00:00 1.1 14 Oeste 25 Oeste 0 -- -- 98
2019-12-01 07:00:00 1.4 10 Sudoeste 22 Oeste 0 -- -- 98
2019-12-01 06:00:00 1.6 7 Oeste 14 Oeste 0 -- -- 97
2019-12-01 05:00:00 1.8 8 Noroeste 25 Oeste 0 -- -- 97
2019-12-01 04:00:00 2.4 15 Oeste 30 Oeste 0 -- -- 96
2019-12-01 03:00:00 2.6 22 Oeste 32 Oeste 0.6 -- -- 96
2019-12-01 02:00:00 2.7 20 Oeste 35 Oeste 0.6 -- -- 95
2019-12-01 01:00:00 2.4 12 Noroeste 40 Noroeste 1 -- -- 96
2019-12-01 00:00:00 2.4 22 Noroeste 46 Noroeste 0.6 -- -- 97
2019-11-30 23:00:00 3.1 37 Noroeste 59 Noroeste 1.8 -- -- 98
2019-11-30 22:00:00 5.7 26 Noroeste 39 Noroeste 1 -- -- 98
2019-11-30 21:00:00 9.2 12 Noroeste 27 Oeste 0 -- -- 83
2019-11-30 20:00:00 9.4 11 Noroeste 30 Oeste 0 -- -- 78
2019-11-30 19:00:00 9 11 Oeste 27 Sudoeste 0 -- -- 79
2019-11-30 18:00:00 9.6 6 Sudoeste 37 Sudoeste 0 -- -- 78
2019-11-30 17:00:00 9.9 19 Oeste 41 Oeste 0 -- -- 77
2019-11-30 16:00:00 11.1 19 Oeste 40 Oeste 0 -- -- 74
2019-11-30 15:00:00 11.9 13 Oeste 27 Oeste 0 -- -- 71
2019-11-30 14:00:00 11.7 15 Oeste 34 Oeste 0 -- -- 75
2019-11-30 13:00:00 11.9 30 Oeste 54 Oeste 0 -- -- 73
2019-11-30 12:00:00 11.1 39 Oeste 58 Oeste 0 -- -- 76
2019-11-30 11:00:00 9.4 42 Oeste 61 Sudoeste 0 -- -- 85
2019-11-30 10:00:00 9.6 27 Oeste 45 Oeste 0 -- -- 86
2019-11-30 09:00:00 8.5 24 Oeste 39 Oeste 0 -- -- 90
2019-11-30 08:00:00 7.8 25 Oeste 42 Oeste 0 -- -- 93
2019-11-30 07:00:00 7.9 28 Oeste 41 Oeste 0 -- -- 93
2019-11-30 06:00:00 8.1 35 Oeste 54 Oeste 0 -- -- 94
2019-11-30 05:00:00 8.2 29 Oeste 48 Oeste 0 -- -- 93
2019-11-30 04:00:00 8.3 24 Oeste 37 Oeste 0 -- -- 94
2019-11-30 03:00:00 8 24 Oeste 40 Oeste 0 -- -- 96
2019-11-30 02:00:00 8.4 7 Noroeste 29 Oeste 0 -- -- 96
2019-11-30 01:00:00 8.6 13 Noroeste 27 Noroeste 0 -- -- 96
2019-11-30 00:00:00 8.5 10 Noroeste 24 Noroeste 0 -- -- 95
2019-11-29 23:00:00 8.8 14 Noroeste 25 Oeste 0 -- -- 93
2019-11-29 22:00:00 8.8 9 Noroeste 25 Oeste 0 -- -- 95
2019-11-29 21:00:00 8.9 15 Noroeste 27 Noroeste 0 -- -- 95
2019-11-29 20:00:00 9.4 12 Noroeste 23 Noroeste 0 -- -- 92
2019-11-29 19:00:00 9.7 14 Oeste 24 Oeste 0 -- -- 90
2019-11-29 18:00:00 9.6 7 Noroeste 18 Noroeste 0 -- -- 89
2019-11-29 17:00:00 10.6 10 Noroeste 22 Noroeste 0 -- -- 86
2019-11-29 16:00:00 11.6 16 Noroeste 28 Noroeste 0 -- -- 80
2019-11-29 15:00:00 12.5 17 Noroeste 29 Oeste 0 -- -- 74
2019-11-29 14:00:00 11.3 17 Noroeste 26 Noroeste 0 -- -- 82
2019-11-29 13:00:00 10.4 17 Noroeste 32 Noroeste 0 -- -- 84
2019-11-29 12:00:00 10.6 16 Noroeste 31 Noroeste 0 -- -- 86
2019-11-29 11:00:00 8.6 15 Noroeste 29 Noroeste 0 -- -- 96
2019-11-29 10:00:00 8.2 14 Noroeste 31 Oeste 0 -- -- 97
2019-11-29 09:00:00 7.6 19 Oeste 32 Oeste 0 -- -- 97
2019-11-29 08:00:00 7.6 11 Noroeste 26 Oeste 0 -- -- 97
2019-11-29 07:00:00 7.6 8 Noroeste 24 Oeste 0 -- -- 97
2019-11-29 06:00:00 7.4 17 Oeste 36 Oeste 0 -- -- 97
2019-11-29 05:00:00 7.4 18 Oeste 37 Oeste 0 -- -- 96
2019-11-29 04:00:00 7.4 21 Oeste 37 Oeste 0 -- -- 95
2019-11-29 03:00:00 7.3 19 Noroeste 61 Oeste 0 -- -- 94
2019-11-29 02:00:00 7.3 40 Oeste 65 Oeste 0 -- -- 93
2019-11-29 01:00:00 7.3 38 Oeste 58 Oeste 0 -- -- 90
2019-11-29 00:00:00 7.3 30 Oeste 55 Oeste 0 -- -- 89
2019-11-28 23:00:00 7.4 27 Oeste 53 Oeste 0 -- -- 88
2019-11-28 22:00:00 7.1 33 Oeste 54 Oeste 0 -- -- 87
2019-11-28 21:00:00 6.8 27 Oeste 44 Oeste 0 -- -- 86
2019-11-28 20:00:00 6.6 21 Oeste 45 Oeste 0 -- -- 86
2019-11-28 19:00:00 6.7 23 Oeste 39 Oeste 0 -- -- 84
2019-11-28 18:00:00 6.8 14 Noroeste 38 Oeste 0 -- -- 83
2019-11-28 17:00:00 7.5 26 Oeste 54 Oeste 0 -- -- 80
2019-11-28 16:00:00 8.4 24 Noroeste 44 Oeste 0 -- -- 79
2019-11-28 15:00:00 9 27 Oeste 56 Oeste 0 -- -- 75
2019-11-28 14:00:00 10 24 Oeste 59 Oeste 0 -- -- 73
2019-11-28 13:00:00 9.8 28 Noroeste 54 Noroeste 0 -- -- 74
2019-11-28 12:00:00 10 25 Noroeste 51 Oeste 0 -- -- 74
2019-11-28 11:00:00 7.8 30 Oeste 53 Oeste 0 -- -- 82
2019-11-28 10:00:00 6.7 37 Oeste 62 Oeste 0 -- -- 85
2019-11-28 09:00:00 6 39 Oeste 63 Oeste 0 -- -- 88
2019-11-28 08:00:00 4.7 35 Oeste 51 Oeste 0 -- -- 93
2019-11-28 07:00:00 4.9 28 Oeste 46 Oeste 0 -- -- 91
2019-11-28 06:00:00 5.5 31 Oeste 51 Oeste 0 -- -- 89
2019-11-28 05:00:00 5.5 25 Oeste 39 Oeste 0 -- -- 89
2019-11-28 04:00:00 5.7 20 Noroeste 39 Oeste 0 -- -- 89
2019-11-28 03:00:00 5.6 26 Oeste 44 Oeste 0 -- -- 89
2019-11-28 02:00:00 5.8 18 Oeste 31 Oeste 0 -- -- 88
2019-11-28 01:00:00 5.8 19 Oeste 42 Oeste 0 -- -- 87
2019-11-28 00:00:00 6 24 Oeste 38 Oeste 0 -- -- 87
2019-11-27 23:00:00 5.7 23 Oeste 40 Oeste 0 -- -- 88
2019-11-27 22:00:00 5.7 20 Oeste 40 Oeste 0 -- -- 87
2019-11-27 21:00:00 6 17 Oeste 34 Oeste 0 -- -- 83
2019-11-27 20:00:00 6.6 22 Oeste 35 Oeste 0 -- -- 80
2019-11-27 19:00:00 6.4 16 Oeste 26 Oeste 0 -- -- 80
2019-11-27 18:00:00 6 13 Noroeste 31 Oeste 0 -- -- 79
2019-11-27 17:00:00 7.5 19 Oeste 35 Oeste 0 -- -- 69
2019-11-27 16:00:00 8.8 17 Oeste 39 Noroeste 0 -- -- 67
2019-11-27 15:00:00 8.7 18 Oeste 52 Noroeste 0 -- -- 67
2019-11-27 14:00:00 10.1 21 Noroeste 45 Oeste 0 -- -- 65
2019-11-27 06:00:00 8 26 Noroeste 44 Oeste 0 -- -- 84
2019-11-27 05:00:00 8.3 21 Noroeste 40 Oeste 0 -- -- 87
2019-11-27 04:00:00 8.2 17 Oeste 34 Oeste 0 -- -- 89
2019-11-27 03:00:00 8.6 18 Oeste 41 Oeste 0 -- -- 84
2019-11-27 02:00:00 8.7 22 Noroeste 44 Oeste 0 -- -- 78
2019-11-27 01:00:00 9.6 26 Noroeste 53 Noroeste 0 -- -- 79
2019-11-27 00:00:00 10.1 11 Noroeste 25 Oeste 0 -- -- 87
2019-11-26 23:00:00 10.1 7 Oeste 31 Oeste 0 -- -- 87
2019-11-26 22:00:00 10.3 12 Oeste 45 Sudoeste 0 -- -- 85
2019-11-26 21:00:00 10.2 27 Sudoeste 45 Oeste 0 -- -- 81
2019-11-26 20:00:00 10 21 Oeste 43 Oeste 0 -- -- 81
2019-11-26 19:00:00 9.7 21 Sudoeste 44 Sudoeste 0 -- -- 84
2019-11-26 18:00:00 10.1 19 Sudoeste 45 Sudoeste 0 -- -- 80
2019-11-26 17:00:00 10.7 29 Sudoeste 42 Sudoeste 0 -- -- 77
2019-11-26 16:00:00 11.4 18 Oeste 46 Oeste 0 -- -- 77
2019-11-26 15:00:00 12.6 21 Oeste 48 Oeste 0 -- -- 73
2019-11-26 14:00:00 12.8 33 Oeste 66 Oeste 0 -- -- 74
2019-11-26 13:00:00 13.1 18 Oeste 48 Oeste 0 -- -- 71
2019-11-26 12:00:00 11.3 35 Oeste 53 Oeste 0 -- -- 72
2019-11-26 11:00:00 9.8 32 Oeste 58 Oeste 0 -- -- 79
2019-11-26 10:00:00 8.3 37 Oeste 58 Oeste 0 -- -- 84
2019-11-26 09:00:00 7.3 41 Oeste 59 Oeste 0 -- -- 87
2019-11-26 08:00:00 7.1 40 Oeste 59 Oeste 0 -- -- 87
2019-11-26 07:00:00 6.6 44 Oeste 65 Oeste 0 -- -- 92
2019-11-26 06:00:00 6.6 29 Oeste 56 Oeste 0 -- -- 92
2019-11-26 05:00:00 6.6 40 Oeste 58 Oeste 0 -- -- 93
2019-11-26 04:00:00 6.7 38 Oeste 61 Oeste 0 -- -- 94
2019-11-26 03:00:00 6.8 17 Oeste 42 Oeste 0 -- -- 94
2019-11-26 02:00:00 7 21 Noroeste 53 Oeste 0 -- -- 94
2019-11-26 01:00:00 7.4 24 Oeste 44 Noroeste 0 -- -- 90
2019-11-26 00:00:00 7.5 22 Oeste 40 Oeste 0 -- -- 92
2019-11-25 23:00:00 7.4 12 Noroeste 30 Oeste 0 -- -- 89
2019-11-25 22:00:00 7.8 14 Oeste 29 Oeste 0 -- -- 89
2019-11-25 21:00:00 8.1 17 Oeste 27 Oeste 0 -- -- 89
2019-11-25 20:00:00 7.8 14 Oeste 33 Noroeste 0 -- -- 88
2019-11-25 19:00:00 7.9 23 Oeste 32 Oeste 0 -- -- 88
2019-11-25 18:00:00 8.3 21 Oeste 33 Oeste 0 -- -- 86
2019-11-25 17:00:00 8.9 21 Oeste 35 Oeste 0 -- -- 83
2019-11-25 16:00:00 9.2 17 Oeste 35 Oeste 0 -- -- 81
2019-11-25 15:00:00 9.4 25 Oeste 40 Noroeste 0 -- -- 83
2019-11-25 14:00:00 9.9 24 Noroeste 41 Noroeste 0 -- -- 80
2019-11-25 13:00:00 10.9 26 Noroeste 40 Noroeste 0 -- -- 72
2019-11-25 12:00:00 9.9 19 Noroeste 49 Oeste 0 -- -- 78
2019-11-25 11:00:00 8.3 31 Oeste 48 Oeste 0 -- -- 86
2019-11-25 10:00:00 7.5 31 Oeste 49 Oeste 0 -- -- 90
2019-11-25 09:00:00 6.4 30 Oeste 43 Oeste 0 -- -- 94
2019-11-25 08:00:00 5.7 27 Oeste 51 Oeste 0 -- -- 98
2019-11-25 07:00:00 5.7 28 Oeste 53 Oeste 0 -- -- 97
2019-11-25 06:00:00 5.5 30 Oeste 46 Oeste 0.8 -- -- 97
2019-11-25 05:00:00 5.3 31 Oeste 57 Oeste 0.4 -- -- 97
2019-11-25 04:00:00 4.6 34 Oeste 55 Oeste 0.2 -- -- 97
2019-11-25 03:00:00 4.7 37 Oeste 57 Oeste 0 -- -- 92
2019-11-25 02:00:00 4.3 38 Oeste 58 Oeste 0 -- -- 89
2019-11-25 01:00:00 4.1 35 Oeste 55 Oeste 0 -- -- 85
2019-11-25 00:00:00 3.7 38 Oeste 57 Oeste 0 -- -- 87
2019-11-24 23:00:00 3.5 28 Oeste 46 Oeste 0 -- -- 86
2019-11-24 22:00:00 2.7 31 Oeste 44 Oeste 0 -- -- 85
2019-11-24 21:00:00 3.5 27 Oeste 54 Oeste 0 -- -- 81
2019-11-24 20:00:00 3.1 8 Noroeste 37 Oeste 0 -- -- 84
2019-11-24 19:00:00 2.7 21 Noroeste 45 Oeste 0 -- -- 86
2019-11-24 18:00:00 3.7 17 Noroeste 34 Noroeste 0 -- -- 82
2019-11-24 17:00:00 4 18 Noroeste 37 Noroeste 0 -- -- 83
2019-11-24 16:00:00 4.4 23 Noroeste 47 Noroeste 0 -- -- 81
2019-11-24 15:00:00 4.6 32 Noroeste 49 Noroeste 0 -- -- 80
2019-11-24 14:00:00 3.5 23 Noroeste 39 Noroeste 0 -- -- 87
2019-11-24 13:00:00 4.3 26 Noroeste 45 Noroeste 0 -- -- 85
2019-11-24 12:00:00 3 26 Noroeste 45 Noroeste 0 -- -- 90
2019-11-24 11:00:00 2.8 31 Noroeste 54 Noroeste 0 -- -- 89
2019-11-24 10:00:00 1.8 31 Noroeste 49 Noroeste 0 -- -- 92
2019-11-24 09:00:00 1.3 29 Noroeste 45 Noroeste 0 -- -- 94
2019-11-24 08:00:00 1.1 32 Noroeste 53 Noroeste 0 -- -- 95
2019-11-24 07:00:00 1.2 29 Noroeste 45 Noroeste 0 -- -- 95
2019-11-24 06:00:00 1.4 26 Noroeste 46 Noroeste 0 -- -- 94
2019-11-24 05:00:00 1.8 30 Noroeste 45 Noroeste 0 -- -- 92
2019-11-24 04:00:00 2.1 30 Noroeste 46 Noroeste 0 -- -- 92
2019-11-24 03:00:00 2.3 20 Noroeste 41 Noroeste 0 -- -- 91
2019-11-24 02:00:00 2.4 24 Noroeste 46 Noroeste 0 -- -- 90
2019-11-24 01:00:00 2.7 28 Noroeste 53 Noroeste 0 -- -- 88
2019-11-24 00:00:00 2.8 25 Noroeste 42 Noroeste 0 -- -- 87
2019-11-23 23:00:00 2.3 17 Noroeste 51 Noroeste 0 -- -- 89
2019-11-23 22:00:00 2.8 34 Noroeste 57 Noroeste 0 -- -- 87
2019-11-23 21:00:00 3.2 27 Noroeste 47 Noroeste 0 -- -- 85
2019-11-23 20:00:00 3.1 28 Noroeste 52 Noroeste 0 -- -- 85
2019-11-23 19:00:00 3.3 30 Noroeste 48 Noroeste 0 -- -- 84
2019-11-23 18:00:00 3.8 27 Noroeste 54 Noroeste 0 -- -- 79
2019-11-23 17:00:00 4.4 33 Noroeste 60 Noroeste 0 -- -- 76
2019-11-23 16:00:00 4.6 35 Noroeste 57 Noroeste 0 -- -- 74
2019-11-23 15:00:00 4.3 31 Oeste 53 Oeste 0 -- -- 78
2019-11-23 14:00:00 4.7 27 Oeste 50 Oeste 0 -- -- 84
2019-11-23 13:00:00 2.7 30 Noroeste 58 Oeste 0.4 -- -- 92
2019-11-23 12:00:00 1.8 34 Noroeste 55 Oeste 0.8 -- -- 96
2019-11-23 11:00:00 1.5 31 Noroeste 60 Oeste 1 -- -- 97
2019-11-23 10:00:00 1.3 33 Noroeste 62 Noroeste 3.6 -- -- 98
2019-11-23 09:00:00 0.6 22 Oeste 35 Oeste 2.4 -- -- 99
2019-11-23 08:00:00 0.6 23 Oeste 52 Oeste 1.6 -- -- 96
2019-11-23 07:00:00 2.5 27 Oeste 49 Oeste 0.2 -- -- 94
2019-11-23 06:00:00 3 26 Oeste 49 Oeste 0.2 -- -- 94
2019-11-23 05:00:00 3 26 Oeste 45 Oeste 0 -- -- 94
2019-11-23 04:00:00 3.7 15 Oeste 41 Noroeste 2.4 -- -- 97
2019-11-23 03:00:00 4.5 9 Oeste 28 Sudoeste 0 -- -- 91
2019-11-23 02:00:00 4.5 17 Sudoeste 31 Oeste 0 -- -- 93
2019-11-23 01:00:00 5.1 16 Oeste 26 Sudoeste 0 -- -- 93
2019-11-23 00:00:00 5.6 15 Oeste 34 Oeste 0 -- -- 92
2019-11-22 23:00:00 5.8 5 Noroeste 39 Oeste 0.8 -- -- 94
2019-11-22 22:00:00 6 15 Oeste 48 Sudoeste 0.8 -- -- 90
2019-11-22 21:00:00 6.9 15 Sudoeste 45 Sur 0 -- -- 86
2019-11-22 20:00:00 7.4 23 Sur 48 Sudoeste 0 -- -- 95
2019-11-22 19:00:00 7.5 24 Sudoeste 50 Sudoeste 0 -- -- 94
2019-11-22 18:00:00 6.9 25 Sudoeste 49 Sudoeste 0.4 -- -- 96
2019-11-22 17:00:00 7.2 24 Sudoeste 47 Sur 0.6 -- -- 93
2019-11-22 16:00:00 6.9 24 Sudoeste 57 Sudoeste 0.6 -- -- 94
2019-11-22 15:00:00 8.3 25 Sudoeste 52 Sudoeste 0 -- -- 82
2019-11-22 14:00:00 7.7 26 Sudoeste 49 Sudoeste 0 -- -- 85
2019-11-22 13:00:00 7.1 24 Sudoeste 48 Sudoeste 0 -- -- 87
2019-11-22 12:00:00 6.9 20 Sur 42 Sur 0 -- -- 87
2019-11-22 11:00:00 5.7 23 Sur 43 Sur 0 -- -- 92
2019-11-22 10:00:00 4.5 23 Sur 36 Sur 0 -- -- 92
2019-11-22 09:00:00 3.8 15 Sudoeste 32 Sudoeste 0 -- -- 91
2019-11-22 08:00:00 3.2 17 Sudoeste 31 Sudoeste 0 -- -- 92
2019-11-22 07:00:00 3.3 17 Sudoeste 27 Sudoeste 0 -- -- 90
2019-11-22 06:00:00 3.3 20 Sudoeste 35 Sudoeste 0 -- -- 87
2019-11-22 05:00:00 3.1 26 Sudoeste 33 Sudoeste 0 -- -- 87
2019-11-22 04:00:00 2.2 14 Sudoeste 25 Sudoeste 0 -- -- 93
2019-11-22 03:00:00 2.1 15 Sudoeste 20 Sudoeste 0 -- -- 93
2019-11-22 02:00:00 1.8 12 Sudoeste 14 Sudoeste 0 -- -- 93
2019-11-22 01:00:00 2.6 11 Sudoeste 16 Sudoeste 0 -- -- 90
2019-11-22 00:00:00 3.6 14 Sudoeste 19 Sudoeste 0 -- -- 85
2019-11-21 23:00:00 4.2 14 Sudoeste 19 Sudoeste 0 -- -- 86
2019-11-21 22:00:00 3.9 4 Sudoeste 9 Sudoeste 0 -- -- 89
2019-11-21 21:00:00 3.2 6 Sudoeste 12 Oeste 0 -- -- 92
2019-11-21 20:00:00 4.1 8 Oeste 13 Oeste 0 -- -- 88
2019-11-21 19:00:00 4.7 5 Noroeste 17 Oeste 0 -- -- 85
2019-11-21 18:00:00 5.2 9 Noroeste 15 Oeste 0 -- -- 81
2019-11-21 17:00:00 5.7 5 Oeste 22 Oeste 0 -- -- 78
2019-11-21 16:00:00 6.2 11 Noroeste 30 Oeste 0 -- -- 77
2019-11-21 15:00:00 6.8 9 Oeste 34 Oeste 0 -- -- 76
2019-11-21 14:00:00 6.9 9 Noroeste 34 Oeste 0 -- -- 77
2019-11-21 13:00:00 6.2 19 Oeste 30 Oeste 0 -- -- 79
2019-11-21 12:00:00 5.3 17 Oeste 32 Oeste 0 -- -- 83
2019-11-21 11:00:00 4 22 Oeste 36 Sudoeste 0 -- -- 86
2019-11-21 10:00:00 3.2 19 Oeste 34 Oeste 0 -- -- 87
2019-11-21 09:00:00 2.5 28 Oeste 51 Oeste 0 -- -- 90
2019-11-21 08:00:00 -- -- -- -- -- -- -- -- --
2019-11-21 07:00:00 -- -- -- -- -- -- -- -- --
2019-11-21 06:00:00 -- -- -- -- -- -- -- -- --
2019-11-21 05:00:00 -- -- -- -- -- -- -- -- --
2019-11-21 04:00:00 -- -- -- -- -- -- -- -- --
2019-11-21 03:00:00 -- -- -- -- -- -- -- -- --
2019-11-21 02:00:00 -- -- -- -- -- -- -- -- --
2019-11-21 01:00:00 -- -- -- -- -- -- -- -- --
2019-11-21 00:00:00 -- -- -- -- -- -- -- -- --
2019-11-20 23:00:00 -- -- -- -- -- -- -- -- --
2019-11-20 22:00:00 -- -- -- -- -- -- -- -- --
2019-11-20 21:00:00 -- -- -- -- -- -- -- -- --
2019-11-20 20:00:00 -- -- -- -- -- -- -- -- --
2019-11-20 19:00:00 3.9 9 Oeste 14 Oeste 0 -- -- 70
2019-11-20 18:00:00 3.6 8 Sudoeste 13 Sudoeste 0 -- -- 71
2019-11-20 17:00:00 5.2 3 Oeste 21 Oeste 0 -- -- 58
2019-11-20 16:00:00 7.1 5 Sudoeste 24 Oeste 0 -- -- 50
2019-11-20 15:00:00 7.2 12 Sudoeste 22 Sudoeste 0 -- -- 51
2019-11-20 14:00:00 6.8 11 Sudoeste 22 Sudoeste 0 -- -- 51
2019-11-20 13:00:00 6 9 Sudoeste 20 Oeste 0 -- -- 55
2019-11-20 12:00:00 5.1 8 Oeste 23 Oeste 0 -- -- 63
2019-11-20 11:00:00 4.1 10 Sudoeste 21 Sudoeste 0 -- -- 69
2019-11-20 10:00:00 2.7 13 Sudoeste 18 Sudoeste 0 -- -- 80
2019-11-20 09:00:00 0.5 9 Sudoeste 22 Sudoeste 0 -- -- 89
2019-11-20 08:00:00 -0.3 17 Sudoeste 22 Sudoeste 0 -- -- 90
2019-11-20 07:00:00 -1.4 18 Sudoeste 21 Sudoeste 0 -- -- 93
2019-11-20 06:00:00 -1.2 5 Oeste 9 Sudoeste 0 -- -- 91
2019-11-20 05:00:00 -0.2 3 Sudeste 14 Oeste 0 -- -- 86
2019-11-20 04:00:00 -0.4 10 Sudoeste 17 Oeste 0 -- -- 91
2019-11-20 03:00:00 1 8 Oeste 28 Oeste 0 -- -- 85
2019-11-20 02:00:00 0.3 19 Sudoeste 28 Oeste 0 -- -- 91
2019-11-20 01:00:00 1 10 Sudoeste 22 Oeste 0 -- -- 88
2019-11-20 00:00:00 0.8 5 Noroeste 28 Oeste 0 -- -- 88
2019-11-19 23:00:00 1.3 18 Oeste 29 Oeste 0 -- -- 87
2019-11-19 22:00:00 1.4 15 Oeste 23 Oeste 0 -- -- 85
2019-11-19 21:00:00 2.4 14 Oeste 22 Noroeste 0 -- -- 80
2019-11-19 20:00:00 2.1 11 Noroeste 22 Noroeste 0 -- -- 80
2019-11-19 19:00:00 2.4 15 Oeste 23 Oeste 0 -- -- 79
2019-11-19 18:00:00 1.5 8 Oeste 20 Noroeste 0 -- -- 80
2019-11-19 17:00:00 2.9 12 Noroeste 26 Noroeste 0 -- -- 75
2019-11-19 16:00:00 4.5 16 Noroeste 28 Noroeste 0 -- -- 68
2019-11-19 15:00:00 4.9 15 Noroeste 30 Noroeste 0 -- -- 66
2019-11-19 14:00:00 4.9 16 Noroeste 29 Noroeste 0 -- -- 69
2019-11-19 13:00:00 4 18 Noroeste 31 Oeste 0 -- -- 73
2019-11-19 12:00:00 3.3 16 Oeste 30 Noroeste 0 -- -- 74
2019-11-19 11:00:00 1.9 18 Noroeste 27 Noroeste 0 -- -- 80
2019-11-19 10:00:00 0.6 17 Noroeste 27 Noroeste 0 -- -- 86
2019-11-19 09:00:00 -0.6 15 Noroeste 24 Noroeste 0 -- -- 91
2019-11-19 08:00:00 -2.6 14 Noroeste 19 Noroeste 0 -- -- 95
2019-11-19 07:00:00 -2.8 6 Noroeste 28 Noroeste 0 -- -- 95
2019-11-19 06:00:00 -2.2 16 Noroeste 25 Noroeste 0 -- -- 95
2019-11-19 05:00:00 -3 3 Noroeste 13 Este 0 -- -- 97
2019-11-19 04:00:00 -2.2 6 Norte 18 Norte 0 -- -- 95
2019-11-19 03:00:00 -1.6 7 Norte 33 Noroeste 0 -- -- 95
2019-11-19 02:00:00 -1.2 23 Noroeste 37 Noroeste 0 -- -- 94
2019-11-19 01:00:00 -0.5 12 Noroeste 45 Noroeste 0 -- -- 89
2019-11-19 00:00:00 -0.5 33 Noroeste 50 Norte 0 -- -- 90
2019-11-18 23:00:00 -0.4 29 Noroeste 43 Noroeste 0 -- -- 89
2019-11-18 22:00:00 -0.1 27 Noroeste 39 Noroeste 0 -- -- 87
2019-11-18 21:00:00 -0.4 28 Norte 42 Noroeste 0 -- -- 89
2019-11-18 20:00:00 -0.3 23 Norte 40 Noroeste 0 -- -- 89
2019-11-18 19:00:00 0.3 21 Noroeste 40 Norte 0 -- -- 93
2019-11-18 18:00:00 0.7 28 Noroeste 40 Noroeste 0 -- -- 88
2019-11-18 17:00:00 1.5 17 Norte 35 Norte 0 -- -- 83
2019-11-18 16:00:00 2.1 25 Norte 38 Noroeste 0 -- -- 83
2019-11-18 15:00:00 2.8 32 Norte 44 Noroeste 0 -- -- 83
2019-11-18 14:00:00 2.3 24 Norte 45 Norte 0 -- -- 85
2019-11-18 13:00:00 2.2 29 Norte 46 Norte 0 -- -- 83
2019-11-18 12:00:00 2 29 Norte 41 Noroeste 0 -- -- 87
2019-11-18 11:00:00 1 20 Norte 44 Norte 0 -- -- 89
2019-11-18 10:00:00 0.9 28 Norte 42 Norte 0 -- -- 90
2019-11-18 09:00:00 0.1 26 Norte 46 Norte 0 -- -- 97
2019-11-18 08:00:00 0.4 29 Norte 49 Noroeste 0 -- -- 98
2019-11-18 07:00:00 0.4 24 Noroeste 36 Noroeste 0.2 -- -- 100
2019-11-18 06:00:00 0.5 18 Noroeste 26 Noroeste 0.2 -- -- 100
2019-11-18 05:00:00 0.2 17 Noroeste 27 Noroeste 0.4 -- -- 99
2019-11-18 04:00:00 1.1 19 Noroeste 31 Noroeste 0 -- -- 98
2019-11-18 03:00:00 1.7 16 Noroeste 28 Noroeste 0 -- -- 96
2019-11-18 02:00:00 2.2 16 Oeste 31 Noroeste 0 -- -- 95
2019-11-18 01:00:00 2.6 13 Noroeste 26 Noroeste 0 -- -- 94
2019-11-18 00:00:00 2.1 15 Oeste 32 Noroeste 0 -- -- 95
2019-11-17 23:00:00 2.5 22 Oeste 36 Oeste 0 -- -- 95
2019-11-17 22:00:00 2.5 20 Oeste 31 Oeste 0.8 -- -- 98
2019-11-17 21:00:00 2.7 20 Oeste 32 Oeste 0.8 -- -- 97
2019-11-17 20:00:00 2.4 19 Oeste 40 Oeste 1.4 -- -- 97
2019-11-17 19:00:00 2.2 26 Oeste 46 Oeste 4.2 -- -- 98
2019-11-17 18:00:00 2.4 27 Oeste 46 Oeste 0.8 -- -- 96
2019-11-17 17:00:00 2.3 28 Oeste 45 Oeste 1.6 -- -- 97
2019-11-17 16:00:00 2.4 24 Oeste 55 Oeste 4 -- -- 98
2019-11-17 15:00:00 3.8 26 Oeste 41 Sudoeste 1 -- -- 93
2019-11-17 14:00:00 5 27 Oeste 44 Oeste 0 -- -- 77
2019-11-17 13:00:00 4.6 14 Oeste 57 Oeste 0 -- -- 76
2019-11-17 12:00:00 3.8 38 Oeste 56 Oeste 0 -- -- 78
2019-11-17 11:00:00 2.6 21 Oeste 37 Oeste 0 -- -- 80
2019-11-17 10:00:00 1.7 8 Noroeste 40 Oeste 0 -- -- 79
2019-11-17 09:00:00 0.2 31 Oeste 48 Oeste 0 -- -- 85
2019-11-17 08:00:00 -1.2 28 Oeste 40 Oeste 0 -- -- 90
2019-11-17 07:00:00 -1.1 22 Oeste 47 Oeste 0 -- -- 91
2019-11-17 06:00:00 -0.3 35 Oeste 52 Noroeste 0 -- -- 87
2019-11-17 05:00:00 -0.6 27 Noroeste 46 Oeste 0 -- -- 90
2019-11-17 04:00:00 -0.6 26 Noroeste 41 Noroeste 0 -- -- 89
2019-11-17 03:00:00 -0.6 23 Oeste 38 Oeste 0 -- -- 87
2019-11-17 02:00:00 -0.2 22 Oeste 40 Oeste 0 -- -- 88
2019-11-17 01:00:00 0.1 25 Oeste 46 Noroeste 0 -- -- 86
2019-11-17 00:00:00 0.5 26 Oeste 43 Oeste 0 -- -- 84
2019-11-16 23:00:00 1.2 23 Noroeste 39 Noroeste 0 -- -- 84
2019-11-16 22:00:00 1.4 21 Noroeste 44 Oeste 0 -- -- 82
2019-11-16 21:00:00 1 24 Noroeste 42 Noroeste 0 -- -- 82
2019-11-16 20:00:00 0.9 25 Oeste 40 Oeste 0 -- -- 81
2019-11-16 19:00:00 1.1 24 Oeste 43 Noroeste 0 -- -- 82
2019-11-16 18:00:00 1.2 15 Oeste 30 Noroeste 0 -- -- 87
2019-11-16 17:00:00 1 15 Noroeste 42 Oeste 0 -- -- 87
2019-11-16 16:00:00 1.8 21 Noroeste 38 Noroeste 0 -- -- 82
2019-11-16 15:00:00 2.6 13 Noroeste 32 Noroeste 0 -- -- 77
2019-11-16 14:00:00 3.4 19 Noroeste 33 Noroeste 0 -- -- 73
2019-11-16 13:00:00 2.9 15 Noroeste 32 Noroeste 0 -- -- 76
2019-11-16 12:00:00 1.7 18 Noroeste 28 Noroeste 0 -- -- 88
2019-11-16 11:00:00 -0.1 19 Noroeste 26 Noroeste 0 -- -- 91
2019-11-16 10:00:00 -1.6 17 Noroeste 28 Noroeste 0 -- -- 97
2019-11-16 09:00:00 -2 13 Noroeste 27 Noroeste 0 -- -- 98
2019-11-16 08:00:00 -2 17 Noroeste 31 Noroeste 0 -- -- 98
2019-11-16 07:00:00 -1.5 24 Noroeste 32 Noroeste 0 -- -- 96
2019-11-16 06:00:00 -1.3 14 Noroeste 30 Noroeste 0 -- -- 97
2019-11-16 05:00:00 -1.3 19 Noroeste 29 Noroeste 0 -- -- 95
2019-11-16 04:00:00 -0.6 15 Noroeste 25 Noroeste 0 -- -- 98
2019-11-16 03:00:00 -0.5 14 Noroeste 25 Noroeste 0 -- -- 98
2019-11-16 02:00:00 -0.5 14 Noroeste 26 Noroeste 0 -- -- 99
2019-11-16 01:00:00 -0.3 19 Noroeste 31 Oeste 0 -- -- 98
2019-11-16 00:00:00 0.1 17 Noroeste 32 Noroeste 0 -- -- 97